createdAt,value
2022-10-19T00:01:45.768Z,81.40
2022-10-19T00:04:12.581Z,81.30
2022-10-19T00:06:40.064Z,81.20
2022-10-19T00:09:13.134Z,81.40
2022-10-19T00:11:43.947Z,81.10
2022-10-19T00:14:17.716Z,81.10
2022-10-19T00:16:46.380Z,80.90
2022-10-19T00:19:19.398Z,81.10
2022-10-19T00:21:46.403Z,81.00
2022-10-19T00:24:13.342Z,81.10
2022-10-19T00:26:40.207Z,81.00
2022-10-19T00:29:07.419Z,80.90
2022-10-19T00:31:34.861Z,81.00
2022-10-19T00:34:01.730Z,80.50
2022-10-19T00:36:31.827Z,80.80
2022-10-19T00:39:00.232Z,80.80
2022-10-19T00:41:30.215Z,80.90
2022-10-19T00:44:03.835Z,80.50
2022-10-19T00:46:34.075Z,80.30
2022-10-19T00:49:07.081Z,80.10
2022-10-19T00:51:40.723Z,80.10
2022-10-19T00:54:09.443Z,80.30
2022-10-19T00:56:40.211Z,80.10
2022-10-19T00:59:08.899Z,80.30
2022-10-19T01:01:36.512Z,80.20
2022-10-19T01:04:05.073Z,80.20
2022-10-19T01:06:33.115Z,80.20
2022-10-19T01:08:59.932Z,80.00
2022-10-19T01:11:55.293Z,80.10
2022-10-19T01:14:51.014Z,79.90
2022-10-19T01:17:24.043Z,79.70
2022-10-19T01:20:11.899Z,79.70
2022-10-19T01:22:50.744Z,80.00
2022-10-19T01:25:38.252Z,80.00
2022-10-19T01:28:52.314Z,80.00
2022-10-19T01:31:32.900Z,80.10
2022-10-19T01:34:18.791Z,80.50
2022-10-19T01:37:20.630Z,80.20
2022-10-19T01:39:53.795Z,80.30
2022-10-19T01:42:35.206Z,80.20
2022-10-19T01:45:09.131Z,80.00
2022-10-19T01:47:44.459Z,80.40
2022-10-19T01:50:38.643Z,80.50
2022-10-19T01:53:08.981Z,80.50
2022-10-19T01:55:40.953Z,80.40
2022-10-19T01:58:10.451Z,80.30
2022-10-19T02:00:40.610Z,80.40
2022-10-19T02:03:09.055Z,80.30
2022-10-19T02:05:38.221Z,79.80
2022-10-19T02:08:14.914Z,80.10
2022-10-19T02:10:43.826Z,79.90
2022-10-19T02:13:12.131Z,80.20
2022-10-19T02:15:43.695Z,79.90
2022-10-19T02:18:12.502Z,79.60
2022-10-19T02:20:39.782Z,79.70
2022-10-19T02:23:07.610Z,79.90
2022-10-19T02:25:34.979Z,79.70
2022-10-19T02:28:03.210Z,79.90
2022-10-19T02:30:30.106Z,80.00
2022-10-19T02:32:57.007Z,79.90
2022-10-19T02:35:23.956Z,80.40
2022-10-19T02:37:51.143Z,80.30
2022-10-19T02:40:18.252Z,80.90
2022-10-19T02:43:03.660Z,80.70
2022-10-19T02:45:35.253Z,80.40
2022-10-19T02:48:11.403Z,81.00
2022-10-19T02:50:38.492Z,81.10
2022-10-19T02:53:05.349Z,81.40
2022-10-19T02:55:32.227Z,81.10
2022-10-19T02:57:59.147Z,81.50
2022-10-19T03:00:25.996Z,81.50
2022-10-19T03:02:52.911Z,81.60
2022-10-19T03:05:19.738Z,81.90
2022-10-19T03:07:46.966Z,81.90
2022-10-19T03:10:13.855Z,82.00
2022-10-19T03:12:40.772Z,82.00
2022-10-19T03:15:08.264Z,82.30
2022-10-19T03:17:36.050Z,82.40
2022-10-19T03:20:03.428Z,82.40
2022-10-19T03:22:30.395Z,82.40
2022-10-19T03:24:57.178Z,82.60
2022-10-19T03:27:24.044Z,82.90
2022-10-19T03:29:50.862Z,82.70
2022-10-19T03:32:17.810Z,83.10
2022-10-19T03:34:44.670Z,83.20
2022-10-19T03:37:13.406Z,83.10
2022-10-19T03:39:41.443Z,83.20
2022-10-19T03:42:08.234Z,83.10
2022-10-19T03:44:35.027Z,83.30
2022-10-19T03:47:01.883Z,83.20
2022-10-19T03:49:28.683Z,83.30
2022-10-19T03:51:55.438Z,83.40
2022-10-19T03:54:25.019Z,83.40
2022-10-19T03:56:54.135Z,83.50
2022-10-19T03:59:21.815Z,83.30
2022-10-19T04:01:48.693Z,83.00
2022-10-19T04:04:20.013Z,83.00
2022-10-19T04:06:48.385Z,83.00
2022-10-19T04:09:17.887Z,82.90
2022-10-19T04:11:45.424Z,82.90
2022-10-19T04:14:19.223Z,82.80
2022-10-19T04:16:53.955Z,82.80
2022-10-19T04:19:21.005Z,82.90
2022-10-19T04:21:49.350Z,82.70
2022-10-19T04:24:18.241Z,82.50
2022-10-19T04:26:47.750Z,82.50
2022-10-19T04:29:16.210Z,82.70
2022-10-19T04:31:43.066Z,82.60
2022-10-19T04:34:09.926Z,82.60
2022-10-19T04:36:37.076Z,82.60
2022-10-19T04:39:05.491Z,82.50
2022-10-19T04:41:33.366Z,82.30
2022-10-19T04:44:03.183Z,82.60
2022-10-19T04:46:30.654Z,82.60
2022-10-19T04:48:58.735Z,82.60
2022-10-19T04:51:26.622Z,82.70
2022-10-19T04:53:56.906Z,82.50
2022-10-19T04:56:27.259Z,82.80
2022-10-19T04:58:58.284Z,82.80
2022-10-19T05:01:26.233Z,82.60
2022-10-19T05:03:58.402Z,82.80
2022-10-19T05:06:26.100Z,83.00
2022-10-19T05:08:53.325Z,83.10
2022-10-19T05:11:20.742Z,83.10
2022-10-19T05:13:48.378Z,83.10
2022-10-19T05:16:18.105Z,83.10
2022-10-19T05:18:59.703Z,83.30
2022-10-19T05:21:29.031Z,83.00
2022-10-19T05:23:56.957Z,83.30
2022-10-19T05:26:25.865Z,83.10
2022-10-19T05:28:56.819Z,83.30
2022-10-19T05:31:29.533Z,83.40
2022-10-19T05:33:56.758Z,83.10
2022-10-19T05:36:34.782Z,83.60
2022-10-19T05:39:07.656Z,84.00
2022-10-19T05:41:35.133Z,83.60
2022-10-19T05:44:03.192Z,83.50
2022-10-19T05:46:31.830Z,83.60
2022-10-19T05:48:59.373Z,83.60
2022-10-19T05:51:27.677Z,83.90
2022-10-19T05:53:55.885Z,83.80
2022-10-19T05:56:28.052Z,83.90
2022-10-19T05:58:58.178Z,83.80
2022-10-19T06:01:25.387Z,83.60
2022-10-19T06:03:53.928Z,83.40
2022-10-19T06:06:21.085Z,83.70
2022-10-19T06:08:48.347Z,83.90
2022-10-19T06:11:18.539Z,83.90
2022-10-19T06:13:46.710Z,83.70
2022-10-19T06:16:17.065Z,83.90
2022-10-19T06:18:44.571Z,83.90
2022-10-19T06:21:21.061Z,83.80
2022-10-19T06:23:56.542Z,84.00
2022-10-19T06:26:24.616Z,83.60
2022-10-19T06:28:54.465Z,84.10
2022-10-19T06:31:21.237Z,83.80
2022-10-19T06:33:49.464Z,83.80
2022-10-19T06:36:22.125Z,83.60
2022-10-19T06:38:49.423Z,83.70
2022-10-19T06:41:16.650Z,83.30
2022-10-19T06:43:43.701Z,83.40
2022-10-19T06:46:14.991Z,83.40
2022-10-19T06:48:41.990Z,83.70
2022-10-19T06:51:08.896Z,83.60
2022-10-19T06:53:37.019Z,83.60
2022-10-19T06:56:06.187Z,83.70
2022-10-19T06:58:37.256Z,83.50
2022-10-19T07:01:07.710Z,83.50
2022-10-19T07:03:35.048Z,83.40
2022-10-19T07:06:04.168Z,83.50
2022-10-19T07:08:32.621Z,83.40
2022-10-19T07:11:02.903Z,83.30
2022-10-19T07:13:30.723Z,83.10
2022-10-19T07:16:05.551Z,83.00
2022-10-19T07:18:36.354Z,82.90
2022-10-19T07:21:06.054Z,82.70
2022-10-19T07:23:35.375Z,82.60
2022-10-19T07:26:13.947Z,82.70
2022-10-19T07:28:43.202Z,82.40
2022-10-19T07:31:12.831Z,82.50
2022-10-19T07:33:40.017Z,82.40
2022-10-19T07:36:09.743Z,81.90
2022-10-19T07:38:37.181Z,81.80
2022-10-19T07:41:05.408Z,81.80
2022-10-19T07:43:32.575Z,81.90
2022-10-19T07:46:04.900Z,81.90
2022-10-19T07:48:31.779Z,81.60
2022-10-19T07:51:00.505Z,81.60
2022-10-19T07:53:27.528Z,81.30
2022-10-19T07:55:54.400Z,81.30
2022-10-19T07:58:21.295Z,81.00
2022-10-19T08:00:48.128Z,81.00
2022-10-19T08:06:03.346Z,80.40
2022-10-19T08:08:30.478Z,80.30
2022-10-19T08:10:58.085Z,80.20
2022-10-19T08:13:25.016Z,80.10
2022-10-19T08:15:51.846Z,80.10
2022-10-19T08:18:18.687Z,80.00
2022-10-19T08:20:45.722Z,79.60
2022-10-19T08:23:12.608Z,79.30
2022-10-19T08:25:39.476Z,79.00
2022-10-19T08:28:06.326Z,79.10
2022-10-19T08:30:35.800Z,78.90
2022-10-19T08:33:04.509Z,78.60
2022-10-19T08:35:31.955Z,78.70
2022-10-19T08:37:59.027Z,78.70
2022-10-19T08:40:29.339Z,78.20
2022-10-19T08:43:33.112Z,78.20
2022-10-19T08:46:20.650Z,78.20
2022-10-19T08:48:47.639Z,76.90
2022-10-19T08:51:14.854Z,76.80
2022-10-19T08:53:58.278Z,76.30
2022-10-19T08:56:51.055Z,76.00
2022-10-19T08:59:41.288Z,76.30
2022-10-19T09:02:15.897Z,76.10
2022-10-19T09:04:50.425Z,76.10
2022-10-19T09:07:33.603Z,75.90
2022-10-19T09:10:16.971Z,75.90
2022-10-19T09:12:58.409Z,75.50
2022-10-19T09:15:50.620Z,75.50
2022-10-19T09:18:28.015Z,75.30
2022-10-19T09:21:12.249Z,75.00
2022-10-19T09:23:40.661Z,74.60
2022-10-19T09:26:30.702Z,74.60
2022-10-19T09:29:14.636Z,74.70
2022-10-19T09:31:45.312Z,74.20
2022-10-19T09:34:16.424Z,74.00
2022-10-19T09:36:50.670Z,73.60
2022-10-19T09:39:18.202Z,73.40
2022-10-19T09:41:52.005Z,72.30
2022-10-19T09:44:19.074Z,72.30
2022-10-19T09:47:19.964Z,72.80
2022-10-19T09:49:48.820Z,72.40
2022-10-19T09:52:39.351Z,71.10
2022-10-19T09:55:15.042Z,71.40
2022-10-19T09:57:46.608Z,71.10
2022-10-19T10:00:33.146Z,71.30
2022-10-19T10:02:59.987Z,71.20
2022-10-19T10:05:38.607Z,70.50
2022-10-19T10:08:14.544Z,70.70
2022-10-19T10:10:47.808Z,70.30
2022-10-19T10:13:19.948Z,69.90
2022-10-19T10:16:01.584Z,69.50
2022-10-19T10:18:29.566Z,69.40
2022-10-19T10:21:11.202Z,69.40
2022-10-19T10:23:38.257Z,69.70
2022-10-19T10:26:15.905Z,69.40
2022-10-19T10:28:50.551Z,69.50
2022-10-19T10:31:25.782Z,68.90
2022-10-19T10:34:16.276Z,69.20
2022-10-19T10:36:53.883Z,69.80
2022-10-19T10:39:20.937Z,70.00
2022-10-19T10:41:48.724Z,70.40
2022-10-19T10:44:23.550Z,70.70
2022-10-19T10:47:01.767Z,70.90
2022-10-19T10:49:39.713Z,70.50
2022-10-19T10:52:13.115Z,71.30
2022-10-19T10:54:40.357Z,71.10
2022-10-19T10:57:13.926Z,71.20
2022-10-19T10:59:59.047Z,71.10
2022-10-19T11:02:35.867Z,71.40
2022-10-19T11:05:26.613Z,71.10
2022-10-19T11:08:05.041Z,71.00
2022-10-19T11:10:39.901Z,71.00
2022-10-19T11:13:23.811Z,70.90
2022-10-19T11:16:02.954Z,71.10
2022-10-19T11:18:51.973Z,70.90
2022-10-19T11:21:29.487Z,70.60
2022-10-19T11:24:01.814Z,70.30
2022-10-19T11:26:45.409Z,70.30
2022-10-19T11:29:31.443Z,70.10
2022-10-19T11:31:58.764Z,70.30
2022-10-19T11:34:38.811Z,70.70
2022-10-19T11:37:14.423Z,70.70
2022-10-19T11:39:47.115Z,70.50
2022-10-19T11:42:37.830Z,70.40
2022-10-19T11:45:30.030Z,70.30
2022-10-19T11:48:17.533Z,70.20
2022-10-19T11:51:20.848Z,69.80
2022-10-19T11:53:48.303Z,69.40
2022-10-19T11:57:01.818Z,69.20
2022-10-19T11:59:36.692Z,69.30
2022-10-19T12:02:22.187Z,69.20
2022-10-19T12:04:54.864Z,69.00
2022-10-19T12:07:21.688Z,69.30
2022-10-19T12:10:11.356Z,69.20
2022-10-19T12:12:43.001Z,68.70
2022-10-19T12:15:15.724Z,68.70
2022-10-19T12:17:46.194Z,68.80
2022-10-19T12:20:30.482Z,68.30
2022-10-19T12:22:59.523Z,68.80
2022-10-19T12:25:26.995Z,68.70
2022-10-19T12:27:54.263Z,67.90
2022-10-19T12:30:23.657Z,68.40
2022-10-19T12:33:22.729Z,68.50
2022-10-19T12:36:02.393Z,68.80
2022-10-19T12:39:06.117Z,68.60
2022-10-19T12:41:45.627Z,68.30
2022-10-19T12:44:27.936Z,67.90
2022-10-19T12:47:01.074Z,67.80
2022-10-19T12:49:39.129Z,67.30
2022-10-19T12:52:08.077Z,67.80
2022-10-19T12:54:38.360Z,68.00
2022-10-19T12:57:27.238Z,67.60
2022-10-19T13:00:25.230Z,68.00
2022-10-19T13:03:23.952Z,67.60
2022-10-19T13:06:01.532Z,68.30
2022-10-19T13:08:37.883Z,67.70
2022-10-19T13:11:16.755Z,66.80
2022-10-19T13:14:26.168Z,67.10
2022-10-19T13:17:03.930Z,66.90
2022-10-19T13:19:30.826Z,66.60
2022-10-19T13:22:01.186Z,66.90
2022-10-19T13:24:32.062Z,66.90
2022-10-19T13:27:04.913Z,66.90
2022-10-19T13:29:38.538Z,66.50
2022-10-19T13:32:44.560Z,66.90
2022-10-19T13:35:31.425Z,66.50
2022-10-19T13:38:12.339Z,66.70
2022-10-19T13:41:02.703Z,66.50
2022-10-19T13:43:39.461Z,66.60
2022-10-19T13:46:29.848Z,66.90
2022-10-19T13:49:14.655Z,67.00
2022-10-19T13:51:53.411Z,66.90
2022-10-19T13:54:44.238Z,66.40
2022-10-19T13:57:37.420Z,66.70
2022-10-19T14:00:29.302Z,66.80
2022-10-19T14:03:11.798Z,67.20
2022-10-19T14:06:17.098Z,66.50
2022-10-19T14:09:01.072Z,65.40
2022-10-19T14:11:31.302Z,66.30
2022-10-19T14:14:20.847Z,66.60
2022-10-19T14:16:54.491Z,66.50
2022-10-19T14:19:29.859Z,66.20
2022-10-19T14:21:59.727Z,65.70
2022-10-19T14:24:35.213Z,65.80
2022-10-19T14:27:06.775Z,65.60
2022-10-19T14:29:54.211Z,65.80
2022-10-19T14:32:26.851Z,66.10
2022-10-19T14:34:56.866Z,65.80
2022-10-19T14:37:26.569Z,65.80
2022-10-19T14:40:28.204Z,66.20
2022-10-19T14:42:57.181Z,66.10
2022-10-19T14:45:26.898Z,66.80
2022-10-19T14:47:59.636Z,66.60
2022-10-19T14:50:33.094Z,66.50
2022-10-19T14:53:22.884Z,66.50
2022-10-19T14:55:52.340Z,66.70
2022-10-19T14:58:22.353Z,66.90
2022-10-19T15:00:50.472Z,67.70
2022-10-19T15:03:31.809Z,68.00
2022-10-19T15:06:04.410Z,68.00
2022-10-19T15:08:43.680Z,67.70
2022-10-19T15:11:29.952Z,67.90
2022-10-19T15:14:06.124Z,67.70
2022-10-19T15:16:50.046Z,67.80
2022-10-19T15:19:23.780Z,68.10
2022-10-19T15:22:26.803Z,68.80
2022-10-19T15:25:07.050Z,68.80
2022-10-19T15:27:39.083Z,69.50
2022-10-19T15:30:18.096Z,69.50
2022-10-19T15:33:10.607Z,69.60
2022-10-19T15:35:39.975Z,69.80
2022-10-19T15:38:14.837Z,70.60
2022-10-19T15:40:43.672Z,71.00
2022-10-19T15:43:45.122Z,70.90
2022-10-19T15:46:23.994Z,70.70
2022-10-19T15:48:55.283Z,71.20
2022-10-19T15:51:25.343Z,71.00
2022-10-19T15:53:53.329Z,71.10
2022-10-19T15:56:21.640Z,71.70
2022-10-19T15:58:53.038Z,71.50
2022-10-19T16:01:26.146Z,71.60
2022-10-19T16:03:53.835Z,71.80
2022-10-19T16:06:23.409Z,72.00
2022-10-19T16:08:54.203Z,71.70
2022-10-19T16:11:23.181Z,72.20
2022-10-19T16:13:50.267Z,72.20
2022-10-19T16:16:27.586Z,72.70
2022-10-19T16:18:55.513Z,72.10
2022-10-19T16:21:25.055Z,72.10
2022-10-19T16:23:52.276Z,72.30
2022-10-19T16:26:19.417Z,72.40
2022-10-19T16:28:48.666Z,73.00
2022-10-19T16:31:16.527Z,72.80
2022-10-19T16:33:43.357Z,72.40
2022-10-19T16:36:10.786Z,73.10
2022-10-19T16:38:37.663Z,73.20
2022-10-19T16:41:07.977Z,73.20
2022-10-19T16:43:35.523Z,73.80
2022-10-19T16:46:03.105Z,73.60
2022-10-19T16:48:29.973Z,74.00
2022-10-19T16:51:22.966Z,74.20
2022-10-19T16:53:57.135Z,73.90
2022-10-19T16:56:25.969Z,74.30
2022-10-19T16:58:58.297Z,74.90
2022-10-19T17:01:25.238Z,74.50
2022-10-19T17:03:52.192Z,74.60
2022-10-19T17:06:20.419Z,75.00
2022-10-19T17:11:38.668Z,75.50
2022-10-19T17:14:07.918Z,75.70
2022-10-19T17:16:36.594Z,76.10
2022-10-19T17:19:05.922Z,77.60
2022-10-19T17:21:38.253Z,76.40
2022-10-19T17:24:08.840Z,77.90
2022-10-19T17:26:39.269Z,77.90
2022-10-19T17:29:07.006Z,78.10
2022-10-19T17:31:34.838Z,78.20
2022-10-19T17:34:02.764Z,78.50
2022-10-19T17:36:32.661Z,78.90
2022-10-19T17:39:02.846Z,78.80
2022-10-19T17:41:30.434Z,78.80
2022-10-19T17:43:57.896Z,79.10
2022-10-19T17:46:30.556Z,79.60
2022-10-19T17:48:58.131Z,79.20
2022-10-19T17:51:30.164Z,79.90
2022-10-19T17:54:02.759Z,79.50
2022-10-19T17:56:29.843Z,79.60
2022-10-19T17:58:57.992Z,79.80
2022-10-19T18:01:26.517Z,79.60
2022-10-19T18:03:54.004Z,80.00
2022-10-19T18:06:23.739Z,80.10
2022-10-19T18:08:53.959Z,80.20
2022-10-19T18:11:26.796Z,80.00
2022-10-19T18:13:56.403Z,80.00
2022-10-19T18:16:28.978Z,80.20
2022-10-19T18:18:58.658Z,80.30
2022-10-19T18:21:28.261Z,80.50
2022-10-19T18:23:57.570Z,80.00
2022-10-19T18:26:26.231Z,80.40
2022-10-19T18:28:55.169Z,80.40
2022-10-19T18:31:25.164Z,80.60
2022-10-19T18:34:04.026Z,80.70
2022-10-19T18:36:32.234Z,80.60
2022-10-19T18:39:02.267Z,81.00
2022-10-19T18:41:29.883Z,81.30
2022-10-19T18:43:59.379Z,81.00
2022-10-19T18:46:28.005Z,81.40
2022-10-19T18:48:56.243Z,81.60
2022-10-19T18:51:24.261Z,81.40
2022-10-19T18:53:51.559Z,81.90
2022-10-19T18:56:21.141Z,82.00
2022-10-19T18:58:48.479Z,81.80
2022-10-19T19:01:21.017Z,81.80
2022-10-19T19:03:52.309Z,82.00
2022-10-19T19:06:25.401Z,82.30
2022-10-19T19:08:56.432Z,82.30
2022-10-19T19:11:25.886Z,82.00
2022-10-19T19:13:57.798Z,82.30
2022-10-19T19:16:25.418Z,82.30
2022-10-19T19:18:52.525Z,82.40
2022-10-19T19:21:25.188Z,82.70
2022-10-19T19:23:53.675Z,82.20
2022-10-19T19:26:23.016Z,82.20
2022-10-19T19:28:51.690Z,82.40
2022-10-19T19:31:19.631Z,82.30
2022-10-19T19:33:47.497Z,82.40
2022-10-19T19:36:16.019Z,82.20
2022-10-19T19:38:43.344Z,82.50
2022-10-19T19:41:13.494Z,82.40
2022-10-19T19:43:41.350Z,82.40
2022-10-19T19:46:14.638Z,82.30
2022-10-19T19:48:43.266Z,82.40
2022-10-19T19:51:14.537Z,82.40
2022-10-19T19:53:41.527Z,82.30
2022-10-19T19:56:10.067Z,82.40
2022-10-19T19:58:36.904Z,82.40
2022-10-19T20:01:12.523Z,82.60
2022-10-19T20:03:41.735Z,82.70
2022-10-19T20:06:09.369Z,82.90
2022-10-19T20:08:37.190Z,82.80
2022-10-19T20:11:07.483Z,82.80
2022-10-19T20:13:35.215Z,83.20
2022-10-19T20:16:13.730Z,82.70
2022-10-19T20:18:51.573Z,82.60
2022-10-19T20:21:19.355Z,82.90
2022-10-19T20:23:47.473Z,83.00
2022-10-19T20:26:16.575Z,83.10
2022-10-19T20:28:44.676Z,83.30
2022-10-19T20:31:12.435Z,83.20
2022-10-19T20:33:42.098Z,82.90
2022-10-19T20:36:16.062Z,83.10
2022-10-19T20:38:47.215Z,83.10
2022-10-19T20:41:14.217Z,82.80
2022-10-19T20:43:41.066Z,83.00
2022-10-19T20:46:13.524Z,83.10
2022-10-19T20:48:40.606Z,83.10
2022-10-19T20:51:12.063Z,83.40
2022-10-19T20:53:39.811Z,83.10
2022-10-19T20:56:11.155Z,83.20
2022-10-19T20:58:40.423Z,82.90
2022-10-19T21:01:19.155Z,83.00
2022-10-19T21:03:52.612Z,83.20
2022-10-19T21:06:20.701Z,83.30
2022-10-19T21:08:48.084Z,83.30
2022-10-19T21:11:30.399Z,83.40
2022-10-19T21:14:06.273Z,83.00
2022-10-19T21:16:37.869Z,83.30
2022-10-19T21:19:07.468Z,83.20
2022-10-19T21:21:36.641Z,83.30
2022-10-19T21:24:07.781Z,83.00
2022-10-19T21:26:36.299Z,83.20
2022-10-19T21:29:04.295Z,83.10
2022-10-19T21:31:31.294Z,83.20
2022-10-19T21:33:58.371Z,83.10
2022-10-19T21:36:25.293Z,83.30
2022-10-19T21:38:52.187Z,83.00
2022-10-19T21:41:23.781Z,83.40
2022-10-19T21:43:53.784Z,83.30
2022-10-19T21:46:22.247Z,83.30
2022-10-19T21:48:49.396Z,83.00
2022-10-19T21:51:24.943Z,83.10
2022-10-19T21:53:51.937Z,83.20
2022-10-19T21:56:18.899Z,83.00
2022-10-19T21:58:50.856Z,82.90
2022-10-19T22:01:19.402Z,83.10
2022-10-19T22:03:46.590Z,82.90
2022-10-19T22:06:13.843Z,82.70
2022-10-19T22:08:45.109Z,83.00
2022-10-19T22:11:13.290Z,82.90
2022-10-19T22:13:40.288Z,82.70
2022-10-19T22:16:13.825Z,83.10
2022-10-19T22:18:41.483Z,83.00
2022-10-19T22:21:14.314Z,82.80
2022-10-19T22:23:41.963Z,82.70
2022-10-19T22:26:21.746Z,82.90
2022-10-19T22:28:48.583Z,82.60
2022-10-19T22:31:15.764Z,82.90
2022-10-19T22:33:42.643Z,82.80
2022-10-19T22:36:11.007Z,82.70
2022-10-19T22:38:38.230Z,82.70
2022-10-19T22:41:05.076Z,82.60
2022-10-19T22:43:31.876Z,82.80
2022-10-19T22:45:58.673Z,82.50
2022-10-19T22:48:25.648Z,82.60
2022-10-19T22:50:56.289Z,82.80
2022-10-19T22:53:24.024Z,82.60
2022-10-19T22:55:51.373Z,82.60
2022-10-19T22:58:18.948Z,82.50
2022-10-19T23:00:46.085Z,82.40
2022-10-19T23:03:14.136Z,82.60
2022-10-19T23:05:40.996Z,82.80
2022-10-19T23:08:07.914Z,82.60
2022-10-19T23:10:34.804Z,82.60
2022-10-19T23:13:01.878Z,82.60
2022-10-19T23:15:28.774Z,82.60
2022-10-19T23:17:55.599Z,82.70
2022-10-19T23:20:22.373Z,82.40
2022-10-19T23:22:50.503Z,82.70
2022-10-19T23:25:17.355Z,82.70
2022-10-19T23:27:44.196Z,82.60
2022-10-19T23:30:11.407Z,82.40
2022-10-19T23:32:38.242Z,82.60
2022-10-19T23:35:06.437Z,82.50
2022-10-19T23:37:35.125Z,82.50
2022-10-19T23:40:02.715Z,82.40
2022-10-19T23:42:29.715Z,82.20
2022-10-19T23:44:56.527Z,82.30
2022-10-19T23:47:23.349Z,82.20
2022-10-19T23:49:50.230Z,82.10
2022-10-19T23:52:17.082Z,82.20
2022-10-19T23:54:43.916Z,82.30
2022-10-19T23:57:10.780Z,82.00
2022-10-19T23:59:37.615Z,82.10
